KBGD/BGD METAR and TAF weather

Enter ICAO airport designator
Station Type Date Time Source
KBGD METAR 2022/12/05 14:51 UTC NOAA

KBGD 051451Z AUTO 24006KT 10SM CLR 14/08 A2981 RMK AO2 SLP076 T01390078 53015


Station Type Date Time Source
KBGD Decoded METAR 2022/12/05 14:51 UTC NOAA

BORGER HUTCHINSON CO AIRPORT , TX, United States (KBGD) 35-42N 101-24W 927M
Dec 05, 2022 - 09:51 AM EST / 2022.12.05 1451 UTC
Wind: from the WSW (240 degrees) at 7 MPH (6 KT):0
Visibility: 10 mile(s):0
Sky conditions: clear
Temperature: 57.0 F (13.9 C)
Dew Point: 46.0 F (7.8 C)
Relative Humidity: 66%
Pressure (altimeter): 29.81 in. Hg (1009 hPa)
Pressure tendency: 0.04 inches (1.5 hPa) higher than three hours ago
ob: KBGD 051451Z AUTO 24006KT 10SM CLR 14/08 A2981 RMK AO2 SLP076 T01390078 53015
cycle: 15

Station Type Date Time Source
KBGD TAF UTC NOAA

Error!

Example: see airport list